Time,TemperatureF,DewpointF,PressureIn,WindDirection,WindDirectionDegrees,WindSpeedMPH,WindSpeedGustMPH,Humidity,HourlyPrecipIn,Conditions,Clouds,dailyrainin,SoftwareType,DateUTC
2013-05-02 00:11:00,56.9,39.0,30.06,NW,313,1.0,2.0,51,0.00,,,0.00,weatherlink.com 1.10,2013-05-02 07:11:00,
2013-05-02 00:26:00,55.6,39.0,30.06,NW,313,0.0,1.0,55,0.00,,,0.00,weatherlink.com 1.10,2013-05-02 07:26:00,
2013-05-02 00:41:00,55.6,38.0,30.07,NNW,336,3.0,3.0,51,0.00,,,0.00,weatherlink.com 1.10,2013-05-02 07:41:00,
2013-05-02 00:56:00,58.5,38.0,30.07,NNW,335,3.0,4.0,46,0.00,,,0.00,weatherlink.com 1.10,2013-05-02 07:56:00,
2013-05-02 01:11:00,59.1,36.0,30.08,NNW,327,1.0,3.0,42,0.00,,,0.00,weatherlink.com 1.10,2013-05-02 08:11:00,
2013-05-02 01:26:00,58.8,36.0,30.08,NNW,327,1.0,2.0,42,0.00,,,0.00,weatherlink.com 1.10,2013-05-02 08:26:00,
2013-05-02 01:41:00,57.9,37.0,30.08,NNW,328,0.0,3.0,46,0.00,,,0.00,weatherlink.com 1.10,2013-05-02 08:41:00,
2013-05-02 01:56:00,57.1,35.0,30.08,NNW,328,0.0,2.0,43,0.00,,,0.00,weatherlink.com 1.10,2013-05-02 08:56:00,
2013-05-02 02:11:00,55.9,35.0,30.08,NNW,328,0.0,1.0,45,0.00,,,0.00,weatherlink.com 1.10,2013-05-02 09:11:00,
2013-05-02 02:26:00,55.4,35.0,30.08,NW,315,1.0,3.0,46,0.00,,,0.00,weatherlink.com 1.10,2013-05-02 09:26:00,
2013-05-02 02:41:00,54.1,38.0,30.09,NW,315,1.0,2.0,54,0.00,,,0.00,weatherlink.com 1.10,2013-05-02 09:41:00,
2013-05-02 02:56:00,52.7,36.0,30.09,WNW,296,2.0,3.0,54,0.00,,,0.00,weatherlink.com 1.10,2013-05-02 09:56:00,
2013-05-02 03:11:00,52.7,35.0,30.10,NW,311,1.0,2.0,52,0.00,,,0.00,weatherlink.com 1.10,2013-05-02 10:11:00,
2013-05-02 03:26:00,52.7,35.0,30.10,NW,309,1.0,3.0,51,0.00,,,0.00,weatherlink.com 1.10,2013-05-02 10:26:00,
2013-05-02 03:41:00,52.7,35.0,30.10,NW,308,0.0,2.0,52,0.00,,,0.00,weatherlink.com 1.10,2013-05-02 10:41:00,
2013-05-02 03:56:00,52.1,36.0,30.11,NW,308,0.0,2.0,54,0.00,,,0.00,weatherlink.com 1.10,2013-05-02 10:56:00,
2013-05-02 04:12:00,51.3,34.0,30.11,NW,307,2.0,3.0,53,0.00,,,0.00,weatherlink.com 1.10,2013-05-02 11:12:00,
2013-05-02 04:27:00,53.0,34.0,30.11,NNW,327,4.0,5.0,48,0.00,,,0.00,weatherlink.com 1.10,2013-05-02 11:27:00,
2013-05-02 04:42:00,56.0,32.0,30.11,NW,324,2.0,7.0,41,0.00,,,0.00,weatherlink.com 1.10,2013-05-02 11:42:00,
2013-05-02 04:57:00,56.9,32.0,30.11,NW,321,2.0,7.0,39,0.00,,,0.00,weatherlink.com 1.10,2013-05-02 11:57:00,
2013-05-02 05:12:00,57.3,31.0,30.11,NW,313,5.0,7.0,37,0.00,,,0.00,weatherlink.com 1.10,2013-05-02 12:12:00,
2013-05-02 05:27:00,57.5,31.0,30.12,NW,321,4.0,6.0,36,0.00,,,0.00,weatherlink.com 1.10,2013-05-02 12:27:00,
2013-05-02 05:42:00,58.2,31.0,30.12,NNW,340,7.0,8.0,35,0.00,,,0.00,weatherlink.com 1.10,2013-05-02 12:42:00,
2013-05-02 05:57:00,59.2,30.0,30.12,NW,317,6.0,9.0,33,0.00,,,0.00,weatherlink.com 1.10,2013-05-02 12:57:00,
2013-05-02 06:12:00,59.5,29.0,30.12,NNW,331,7.0,9.0,32,0.00,,,0.00,weatherlink.com 1.10,2013-05-02 13:12:00,
2013-05-02 06:27:00,59.5,29.0,30.13,NW,323,5.0,10.0,31,0.00,,,0.00,weatherlink.com 1.10,2013-05-02 13:27:00,
2013-05-02 06:42:00,59.4,29.0,30.14,NNW,336,3.0,8.0,32,0.00,,,0.00,weatherlink.com 1.10,2013-05-02 13:42:00,
2013-05-02 06:57:00,60.3,29.0,30.14,NNW,338,2.0,9.0,31,0.00,,,0.00,weatherlink.com 1.10,2013-05-02 13:57:00,
2013-05-02 07:12:00,61.5,30.0,30.14,NW,325,2.0,9.0,31,0.00,,,0.00,weatherlink.com 1.10,2013-05-02 14:12:00,
2013-05-02 07:27:00,62.8,31.0,30.15,NNW,328,2.0,7.0,30,0.00,,,0.00,weatherlink.com 1.10,2013-05-02 14:27:00,
2013-05-02 07:42:00,64.0,31.0,30.15,North,360,8.0,8.0,29,0.00,,,0.00,weatherlink.com 1.10,2013-05-02 14:42:00,
2013-05-02 07:57:00,65.0,31.0,30.15,North,5,4.0,11.0,28,0.00,,,0.00,weatherlink.com 1.10,2013-05-02 14:57:00,
2013-05-02 08:12:00,66.0,31.0,30.15,NNW,327,6.0,10.0,27,0.00,,,0.00,weatherlink.com 1.10,2013-05-02 15:12:00,
2013-05-02 08:27:00,67.1,32.0,30.16,NNW,344,5.0,10.0,27,0.00,,,0.00,weatherlink.com 1.10,2013-05-02 15:27:00,
2013-05-02 08:42:00,68.4,33.0,30.16,NW,323,7.0,8.0,27,0.00,,,0.00,weatherlink.com 1.10,2013-05-02 15:42:00,
2013-05-02 08:57:00,69.7,32.0,30.16,NNW,344,4.0,9.0,25,0.00,,,0.00,weatherlink.com 1.10,2013-05-02 15:57:00,
2013-05-02 09:13:00,71.0,32.0,30.16,WNW,298,4.0,9.0,24,0.00,,,0.00,weatherlink.com 1.10,2013-05-02 16:13:00,
2013-05-02 09:28:00,72.4,34.0,30.16,NW,323,4.0,9.0,24,0.00,,,0.00,weatherlink.com 1.10,2013-05-02 16:28:00,
2013-05-02 09:43:00,73.2,32.0,30.15,NW,321,5.0,11.0,22,0.00,,,0.00,weatherlink.com 1.10,2013-05-02 16:43:00,
2013-05-02 09:58:00,75.1,34.0,30.15,NNW,347,5.0,10.0,22,0.00,,,0.00,weatherlink.com 1.10,2013-05-02 16:58:00,
2013-05-02 10:13:00,75.8,32.0,30.15,NNW,345,4.0,12.0,20,0.00,,,0.00,weatherlink.com 1.10,2013-05-02 17:13:00,
2013-05-02 10:28:00,76.4,31.0,30.15,NW,318,8.0,13.0,19,0.00,,,0.00,weatherlink.com 1.10,2013-05-02 17:28:00,
2013-05-02 10:43:00,77.7,32.0,30.15,NNW,333,7.0,13.0,19,0.00,,,0.00,weatherlink.com 1.10,2013-05-02 17:43:00,
2013-05-02 10:58:00,78.7,32.0,30.15,NNW,333,12.0,14.0,18,0.00,,,0.00,weatherlink.com 1.10,2013-05-02 17:58:00,
2013-05-02 11:13:00,80.0,33.0,30.15,NNW,336,6.0,13.0,18,0.00,,,0.00,weatherlink.com 1.10,2013-05-02 18:13:00,
2013-05-02 11:28:00,80.8,33.0,30.15,North,355,4.0,11.0,18,0.00,,,0.00,weatherlink.com 1.10,2013-05-02 18:28:00,
2013-05-02 11:43:00,82.0,32.0,30.14,WNW,297,5.0,10.0,16,0.00,,,0.00,weatherlink.com 1.10,2013-05-02 18:43:00,
2013-05-02 11:58:00,83.1,31.0,30.14,NNW,327,9.0,14.0,15,0.00,,,0.00,weatherlink.com 1.10,2013-05-02 18:58:00,
2013-05-02 12:13:00,83.6,31.0,30.14,NNW,348,6.0,11.0,15,0.00,,,0.00,weatherlink.com 1.10,2013-05-02 19:13:00,
2013-05-02 12:28:00,84.8,29.0,30.13,NNW,346,6.0,10.0,13,0.00,,,0.00,weatherlink.com 1.10,2013-05-02 19:28:00,
2013-05-02 12:43:00,85.1,32.0,30.12,North,355,6.0,11.0,15,0.00,,,0.00,weatherlink.com 1.10,2013-05-02 19:43:00,
2013-05-02 12:59:00,86.1,32.0,30.12,NW,313,5.0,10.0,14,0.00,,,0.00,weatherlink.com 1.10,2013-05-02 19:59:00,
2013-05-02 13:14:00,86.3,30.0,30.11,NW,322,2.0,10.0,13,0.00,,,0.00,weatherlink.com 1.10,2013-05-02 20:14:00,
2013-05-02 13:29:00,87.2,31.0,30.11,North,11,4.0,9.0,13,0.00,,,0.00,weatherlink.com 1.10,2013-05-02 20:29:00,
2013-05-02 13:44:00,87.5,31.0,30.11,NW,310,4.0,10.0,13,0.00,,,0.00,weatherlink.com 1.10,2013-05-02 20:44:00,
2013-05-02 13:59:00,88.2,31.0,30.11,NNW,348,6.0,11.0,13,0.00,,,0.00,weatherlink.com 1.10,2013-05-02 20:59:00,
2013-05-02 14:14:00,88.9,32.0,30.11,NNW,344,4.0,8.0,13,0.00,,,0.00,weatherlink.com 1.10,2013-05-02 21:14:00,
2013-05-02 14:29:00,88.8,30.0,30.10,NNW,331,5.0,10.0,12,0.00,,,0.00,weatherlink.com 1.10,2013-05-02 21:29:00,
2013-05-02 14:44:00,89.7,34.0,30.10,NW,319,7.0,8.0,14,0.00,,,0.00,weatherlink.com 1.10,2013-05-02 21:44:00,
2013-05-02 14:59:00,90.0,31.0,30.09,NNW,334,4.0,8.0,12,0.00,,,0.00,weatherlink.com 1.10,2013-05-02 21:59:00,
2013-05-02 15:14:00,89.6,33.0,30.09,NW,310,4.0,10.0,13,0.00,,,0.00,weatherlink.com 1.10,2013-05-02 22:14:00,
2013-05-02 15:29:00,89.9,26.0,30.08,NW,305,1.0,8.0,10,0.00,,,0.00,weatherlink.com 1.10,2013-05-02 22:29:00,
2013-05-02 15:44:00,90.6,31.0,30.08,West,279,5.0,7.0,12,0.00,,,0.00,weatherlink.com 1.10,2013-05-02 22:44:00,
2013-05-02 15:59:00,90.2,29.0,30.07,NW,323,4.0,9.0,11,0.00,,,0.00,weatherlink.com 1.10,2013-05-02 22:59:00,
2013-05-02 16:14:00,90.9,29.0,30.07,North,350,5.0,8.0,11,0.00,,,0.00,weatherlink.com 1.10,2013-05-02 23:14:00,
2013-05-02 16:29:00,90.9,27.0,30.06,WNW,297,3.0,7.0,10,0.00,,,0.00,weatherlink.com 1.10,2013-05-02 23:29:00,
2013-05-02 16:44:00,91.3,27.0,30.06,NW,308,4.0,6.0,10,0.00,,,0.00,weatherlink.com 1.10,2013-05-02 23:44:00,
2013-05-02 16:59:00,91.4,30.0,30.06,NNW,327,4.0,9.0,11,0.00,,,0.00,weatherlink.com 1.10,2013-05-02 23:59:00,
2013-05-02 17:14:00,91.1,27.0,30.05,NW,326,5.0,7.0,10,0.00,,,0.00,weatherlink.com 1.10,2013-05-03 00:14:00,
2013-05-02 17:29:00,91.2,30.0,30.05,NW,308,2.0,6.0,11,0.00,,,0.00,weatherlink.com 1.10,2013-05-03 00:29:00,
2013-05-02 17:44:00,91.0,30.0,30.05,NW,317,3.0,6.0,11,0.00,,,0.00,weatherlink.com 1.10,2013-05-03 00:44:00,
2013-05-02 18:00:00,91.3,38.0,30.04,WSW,244,2.0,4.0,15,0.00,,,0.00,weatherlink.com 1.10,2013-05-03 01:00:00,
2013-05-02 18:14:00,90.8,34.0,30.04,WSW,256,1.0,4.0,13,0.00,,,0.00,weatherlink.com 1.10,2013-05-03 01:14:00,
2013-05-02 18:29:00,90.3,45.0,30.04,SW,221,0.0,3.0,21,0.00,,,0.00,weatherlink.com 1.10,2013-05-03 01:29:00,
2013-05-02 18:44:00,89.4,47.0,30.04,SW,234,1.0,2.0,23,0.00,,,0.00,weatherlink.com 1.10,2013-05-03 01:44:00,
2013-05-02 18:59:00,87.2,48.0,30.04,SSW,207,1.0,3.0,26,0.00,,,0.00,weatherlink.com 1.10,2013-05-03 01:59:00,
2013-05-02 19:14:00,85.0,48.0,30.03,SSW,202,2.0,3.0,28,0.00,,,0.00,weatherlink.com 1.10,2013-05-03 02:14:00,
2013-05-02 19:29:00,82.6,48.0,30.03,SSW,200,0.0,2.0,30,0.00,,,0.00,weatherlink.com 1.10,2013-05-03 02:29:00,
2013-05-02 19:44:00,80.7,46.0,30.03,SSW,200,0.0,1.0,29,0.00,,,0.00,weatherlink.com 1.10,2013-05-03 02:44:00,
2013-05-02 19:59:00,78.4,47.0,30.03,SSW,200,0.0,0.0,33,0.00,,,0.00,weatherlink.com 1.10,2013-05-03 02:59:00,
2013-05-02 20:14:00,75.3,46.0,30.03,SSW,203,1.0,3.0,35,0.00,,,0.00,weatherlink.com 1.10,2013-05-03 03:14:00,
2013-05-02 20:29:00,73.9,43.0,30.04,SW,236,3.0,6.0,33,0.00,,,0.00,weatherlink.com 1.10,2013-05-03 03:29:00,
2013-05-02 20:44:00,73.9,41.0,30.04,SSW,201,2.0,4.0,31,0.00,,,0.00,weatherlink.com 1.10,2013-05-03 03:44:00,
2013-05-02 20:59:00,72.6,41.0,30.04,SW,223,2.0,4.0,32,0.00,,,0.00,weatherlink.com 1.10,2013-05-03 03:59:00,
2013-05-02 21:14:00,71.6,39.0,30.04,SSW,210,3.0,6.0,30,0.00,,,0.00,weatherlink.com 1.10,2013-05-03 04:14:00,
2013-05-02 21:29:00,70.7,38.0,30.04,SW,224,2.0,7.0,30,0.00,,,0.00,weatherlink.com 1.10,2013-05-03 04:29:00,
2013-05-02 21:44:00,69.7,37.0,30.04,SSW,211,2.0,4.0,30,0.00,,,0.00,weatherlink.com 1.10,2013-05-03 04:44:00,
2013-05-02 21:59:00,68.6,37.0,30.04,SSW,210,2.0,2.0,31,0.00,,,0.00,weatherlink.com 1.10,2013-05-03 04:59:00,
2013-05-02 22:14:00,67.4,37.0,30.04,SW,217,1.0,3.0,33,0.00,,,0.00,weatherlink.com 1.10,2013-05-03 05:14:00,
2013-05-02 22:29:00,66.1,38.0,30.04,SW,217,0.0,1.0,35,0.00,,,0.00,weatherlink.com 1.10,2013-05-03 05:29:00,
2013-05-02 22:44:00,65.5,36.0,30.04,SW,217,0.0,2.0,34,0.00,,,0.00,weatherlink.com 1.10,2013-05-03 05:44:00,
2013-05-02 22:59:00,65.3,36.0,30.04,SW,217,0.0,1.0,34,0.00,,,0.00,weatherlink.com 1.10,2013-05-03 05:59:00,
2013-05-02 23:14:00,65.1,37.0,30.04,SW,217,0.0,2.0,35,0.00,,,0.00,weatherlink.com 1.10,2013-05-03 06:14:00,
2013-05-02 23:29:00,64.6,37.0,30.04,SW,217,1.0,1.0,36,0.00,,,0.00,weatherlink.com 1.10,2013-05-03 06:29:00,
2013-05-02 23:44:00,64.1,37.0,30.04,SW,217,0.0,3.0,37,0.00,,,0.00,weatherlink.com 1.10,2013-05-03 06:44:00,
2013-05-02 23:59:00,62.7,37.0,30.04,SSW,207,1.0,3.0,39,0.00,,,0.00,weatherlink.com 1.10,2013-05-03 06:59:00,